sensor_id;sensor_type;location;lat;lon;timestamp;temperature;humidity
65568;DHT22;52211;50.154;8.682;2023-02-01T00:01:40;8.30;70.60
65568;DHT22;52211;50.154;8.682;2023-02-01T00:04:06;8.30;70.40
65568;DHT22;52211;50.154;8.682;2023-02-01T00:06:35;8.40;70.50
65568;DHT22;52211;50.154;8.682;2023-02-01T00:09:07;8.30;70.40
65568;DHT22;52211;50.154;8.682;2023-02-01T00:11:40;8.40;70.40
65568;DHT22;52211;50.154;8.682;2023-02-01T00:14:11;8.40;70.50
65568;DHT22;52211;50.154;8.682;2023-02-01T00:16:41;8.40;70.50
65568;DHT22;52211;50.154;8.682;2023-02-01T00:19:11;8.40;70.50
65568;DHT22;52211;50.154;8.682;2023-02-01T00:21:41;8.40;70.50
65568;DHT22;52211;50.154;8.682;2023-02-01T00:24:10;8.40;70.40
65568;DHT22;52211;50.154;8.682;2023-02-01T00:26:42;8.50;70.50
65568;DHT22;52211;50.154;8.682;2023-02-01T00:29:15;8.40;70.50
65568;DHT22;52211;50.154;8.682;2023-02-01T00:31:46;8.40;70.40
65568;DHT22;52211;50.154;8.682;2023-02-01T00:34:19;8.40;70.40
65568;DHT22;52211;50.154;8.682;2023-02-01T00:36:49;8.40;70.40
65568;DHT22;52211;50.154;8.682;2023-02-01T00:39:18;8.50;70.40
65568;DHT22;52211;50.154;8.682;2023-02-01T00:41:52;8.40;70.40
65568;DHT22;52211;50.154;8.682;2023-02-01T00:44:24;8.40;70.40
65568;DHT22;52211;50.154;8.682;2023-02-01T00:46:56;8.50;70.50
65568;DHT22;52211;50.154;8.682;2023-02-01T00:49:25;8.90;70.70
65568;DHT22;52211;50.154;8.682;2023-02-01T00:51:54;8.40;70.40
65568;DHT22;52211;50.154;8.682;2023-02-01T00:54:25;8.50;70.40
65568;DHT22;52211;50.154;8.682;2023-02-01T00:56:52;8.40;70.40
65568;DHT22;52211;50.154;8.682;2023-02-01T00:59:23;8.40;70.30
65568;DHT22;52211;50.154;8.682;2023-02-01T01:01:54;8.50;70.50
65568;DHT22;52211;50.154;8.682;2023-02-01T01:04:23;8.40;70.40
65568;DHT22;52211;50.154;8.682;2023-02-01T01:06:50;8.40;70.40
65568;DHT22;52211;50.154;8.682;2023-02-01T01:09:17;9.40;71.00
65568;DHT22;52211;50.154;8.682;2023-02-01T01:11:46;8.50;70.50
65568;DHT22;52211;50.154;8.682;2023-02-01T01:14:13;8.50;70.50
65568;DHT22;52211;50.154;8.682;2023-02-01T01:16:40;8.50;70.50
65568;DHT22;52211;50.154;8.682;2023-02-01T01:19:11;8.40;70.40
65568;DHT22;52211;50.154;8.682;2023-02-01T01:21:39;8.50;70.50
65568;DHT22;52211;50.154;8.682;2023-02-01T01:24:09;8.40;70.40
65568;DHT22;52211;50.154;8.682;2023-02-01T01:26:39;8.50;70.50
65568;DHT22;52211;50.154;8.682;2023-02-01T01:29:08;8.50;70.50
65568;DHT22;52211;50.154;8.682;2023-02-01T01:31:38;8.50;70.50
65568;DHT22;52211;50.154;8.682;2023-02-01T01:34:05;8.40;70.40
65568;DHT22;52211;50.154;8.682;2023-02-01T01:36:35;8.50;70.50
65568;DHT22;52211;50.154;8.682;2023-02-01T01:39:01;8.50;70.50
65568;DHT22;52211;50.154;8.682;2023-02-01T01:41:31;8.40;70.40
65568;DHT22;52211;50.154;8.682;2023-02-01T01:47:27;8.50;70.50
65568;DHT22;52211;50.154;8.682;2023-02-01T01:50:05;8.50;70.40
65568;DHT22;52211;50.154;8.682;2023-02-01T01:52:35;8.50;70.40
65568;DHT22;52211;50.154;8.682;2023-02-01T01:55:04;8.50;70.50
65568;DHT22;52211;50.154;8.682;2023-02-01T01:57:37;8.50;70.40
65568;DHT22;52211;50.154;8.682;2023-02-01T02:00:10;8.50;70.50
65568;DHT22;52211;50.154;8.682;2023-02-01T02:02:47;8.50;70.50
65568;DHT22;52211;50.154;8.682;2023-02-01T02:05:16;8.50;70.50
65568;DHT22;52211;50.154;8.682;2023-02-01T02:07:51;8.50;70.50
65568;DHT22;52211;50.154;8.682;2023-02-01T02:10:23;8.50;70.50
65568;DHT22;52211;50.154;8.682;2023-02-01T02:13:10;8.40;70.50
65568;DHT22;52211;50.154;8.682;2023-02-01T02:15:50;8.50;70.50
65568;DHT22;52211;50.154;8.682;2023-02-01T02:18:38;8.50;70.60
65568;DHT22;52211;50.154;8.682;2023-02-01T02:21:23;8.50;70.60
65568;DHT22;52211;50.154;8.682;2023-02-01T02:33:17;8.50;70.60
65568;DHT22;52211;50.154;8.682;2023-02-01T02:45:08;8.50;70.80
65568;DHT22;52211;50.154;8.682;2023-02-01T02:48:19;8.50;70.60
65568;DHT22;52211;50.154;8.682;2023-02-01T02:50:59;8.50;70.80
65568;DHT22;52211;50.154;8.682;2023-02-01T02:54:07;8.40;70.70
65568;DHT22;52211;50.154;8.682;2023-02-01T02:57:02;8.40;70.80
65568;DHT22;52211;50.154;8.682;2023-02-01T02:59:55;8.50;70.70
65568;DHT22;52211;50.154;8.682;2023-02-01T03:02:49;8.50;70.70
65568;DHT22;52211;50.154;8.682;2023-02-01T03:05:43;8.50;70.80
65568;DHT22;52211;50.154;8.682;2023-02-01T03:08:17;8.40;70.80
65568;DHT22;52211;50.154;8.682;2023-02-01T03:11:08;8.50;70.80
65568;DHT22;52211;50.154;8.682;2023-02-01T03:19:19;8.40;70.90
65568;DHT22;52211;50.154;8.682;2023-02-01T03:21:57;8.40;71.10
65568;DHT22;52211;50.154;8.682;2023-02-01T03:24:46;8.40;70.90
65568;DHT22;52211;50.154;8.682;2023-02-01T03:33:21;8.50;71.20
65568;DHT22;52211;50.154;8.682;2023-02-01T03:36:02;8.50;71.00
65568;DHT22;52211;50.154;8.682;2023-02-01T03:47:30;8.50;71.10
65568;DHT22;52211;50.154;8.682;2023-02-01T03:50:08;8.50;71.50
65568;DHT22;52211;50.154;8.682;2023-02-01T03:52:54;8.50;71.00
65568;DHT22;52211;50.154;8.682;2023-02-01T03:55:34;8.50;71.10
65568;DHT22;52211;50.154;8.682;2023-02-01T03:58:22;8.60;71.10
65568;DHT22;52211;50.154;8.682;2023-02-01T04:00:53;8.60;71.20
65568;DHT22;52211;50.154;8.682;2023-02-01T04:03:28;8.50;71.00
65568;DHT22;52211;50.154;8.682;2023-02-01T04:05:55;8.50;71.00
65568;DHT22;52211;50.154;8.682;2023-02-01T04:08:28;8.50;71.00
65568;DHT22;52211;50.154;8.682;2023-02-01T04:10:57;8.60;71.10
65568;DHT22;52211;50.154;8.682;2023-02-01T04:13:29;8.50;71.10
65568;DHT22;52211;50.154;8.682;2023-02-01T04:15:56;8.60;71.10
65568;DHT22;52211;50.154;8.682;2023-02-01T04:18:25;8.50;71.00
65568;DHT22;52211;50.154;8.682;2023-02-01T04:20:54;8.50;71.00
65568;DHT22;52211;50.154;8.682;2023-02-01T04:23:23;8.60;71.10
65568;DHT22;52211;50.154;8.682;2023-02-01T04:25:52;8.60;71.10
65568;DHT22;52211;50.154;8.682;2023-02-01T04:28:24;8.60;71.60
65568;DHT22;52211;50.154;8.682;2023-02-01T04:30:51;8.50;71.00
65568;DHT22;52211;50.154;8.682;2023-02-01T04:33:23;8.60;71.10
65568;DHT22;52211;50.154;8.682;2023-02-01T04:35:52;8.60;71.00
65568;DHT22;52211;50.154;8.682;2023-02-01T04:38:24;8.60;71.00
65568;DHT22;52211;50.154;8.682;2023-02-01T04:40:54;8.70;71.10
65568;DHT22;52211;50.154;8.682;2023-02-01T04:43:21;8.60;71.00
65568;DHT22;52211;50.154;8.682;2023-02-01T04:45:48;8.60;71.00
65568;DHT22;52211;50.154;8.682;2023-02-01T04:48:17;8.60;71.00
65568;DHT22;52211;50.154;8.682;2023-02-01T04:50:51;8.60;71.00
65568;DHT22;52211;50.154;8.682;2023-02-01T04:53:22;8.70;71.60
65568;DHT22;52211;50.154;8.682;2023-02-01T04:55:53;8.70;71.00
65568;DHT22;52211;50.154;8.682;2023-02-01T04:58:22;8.60;70.90
65568;DHT22;52211;50.154;8.682;2023-02-01T05:00:53;8.70;71.00
65568;DHT22;52211;50.154;8.682;2023-02-01T05:03:25;8.60;71.00
65568;DHT22;52211;50.154;8.682;2023-02-01T05:05:55;8.60;71.00
65568;DHT22;52211;50.154;8.682;2023-02-01T05:08:24;8.60;71.00
65568;DHT22;52211;50.154;8.682;2023-02-01T05:10:51;8.60;71.00
65568;DHT22;52211;50.154;8.682;2023-02-01T05:13:20;8.60;71.10
65568;DHT22;52211;50.154;8.682;2023-02-01T05:16:06;8.60;71.10
65568;DHT22;52211;50.154;8.682;2023-02-01T05:18:37;8.60;71.10
65568;DHT22;52211;50.154;8.682;2023-02-01T05:21:09;8.60;71.10
65568;DHT22;52211;50.154;8.682;2023-02-01T05:23:36;8.60;71.10
65568;DHT22;52211;50.154;8.682;2023-02-01T05:26:26;8.60;71.10
65568;DHT22;52211;50.154;8.682;2023-02-01T05:28:55;8.60;71.10
65568;DHT22;52211;50.154;8.682;2023-02-01T05:31:25;8.60;71.10
65568;DHT22;52211;50.154;8.682;2023-02-01T05:33:52;8.60;71.10
65568;DHT22;52211;50.154;8.682;2023-02-01T05:36:19;8.60;71.10
65568;DHT22;52211;50.154;8.682;2023-02-01T05:38:46;8.50;71.00
65568;DHT22;52211;50.154;8.682;2023-02-01T05:41:15;8.60;71.10
65568;DHT22;52211;50.154;8.682;2023-02-01T05:43:44;8.60;71.10
65568;DHT22;52211;50.154;8.682;2023-02-01T05:46:11;8.60;71.10
65568;DHT22;52211;50.154;8.682;2023-02-01T05:48:41;8.60;71.10
65568;DHT22;52211;50.154;8.682;2023-02-01T05:51:14;8.60;71.10
65568;DHT22;52211;50.154;8.682;2023-02-01T05:53:43;8.60;71.10
65568;DHT22;52211;50.154;8.682;2023-02-01T05:56:10;8.60;71.10
65568;DHT22;52211;50.154;8.682;2023-02-01T05:58:40;8.60;71.00
65568;DHT22;52211;50.154;8.682;2023-02-01T06:01:09;8.50;71.00
65568;DHT22;52211;50.154;8.682;2023-02-01T06:03:38;8.60;71.00
65568;DHT22;52211;50.154;8.682;2023-02-01T06:06:05;8.60;71.00
65568;DHT22;52211;50.154;8.682;2023-02-01T06:08:35;8.60;71.00
65568;DHT22;52211;50.154;8.682;2023-02-01T06:11:09;8.50;70.80
65568;DHT22;52211;50.154;8.682;2023-02-01T06:13:57;8.60;70.90
65568;DHT22;52211;50.154;8.682;2023-02-01T06:16:26;8.50;70.80
65568;DHT22;52211;50.154;8.682;2023-02-01T06:18:55;8.50;70.80
65568;DHT22;52211;50.154;8.682;2023-02-01T06:21:25;8.50;70.80
65568;DHT22;52211;50.154;8.682;2023-02-01T06:23:55;8.40;70.70
65568;DHT22;52211;50.154;8.682;2023-02-01T06:26:24;8.40;70.70
65568;DHT22;52211;50.154;8.682;2023-02-01T06:28:54;8.40;70.70
65568;DHT22;52211;50.154;8.682;2023-02-01T06:31:25;8.40;70.70
65568;DHT22;52211;50.154;8.682;2023-02-01T06:33:53;8.40;70.70
65568;DHT22;52211;50.154;8.682;2023-02-01T06:36:20;8.40;70.70
65568;DHT22;52211;50.154;8.682;2023-02-01T06:38:49;8.40;70.60
65568;DHT22;52211;50.154;8.682;2023-02-01T06:41:18;8.40;70.60
65568;DHT22;52211;50.154;8.682;2023-02-01T06:43:48;8.50;70.60
65568;DHT22;52211;50.154;8.682;2023-02-01T06:46:17;8.40;70.50
65568;DHT22;52211;50.154;8.682;2023-02-01T06:48:44;8.40;70.50
65568;DHT22;52211;50.154;8.682;2023-02-01T06:51:24;8.30;70.40
65568;DHT22;52211;50.154;8.682;2023-02-01T06:53:52;8.40;70.40
65568;DHT22;52211;50.154;8.682;2023-02-01T06:56:20;8.30;70.40
65568;DHT22;52211;50.154;8.682;2023-02-01T06:58:50;8.30;70.40
65568;DHT22;52211;50.154;8.682;2023-02-01T07:01:17;8.30;70.40
65568;DHT22;52211;50.154;8.682;2023-02-01T07:03:49;8.30;70.40
65568;DHT22;52211;50.154;8.682;2023-02-01T07:06:19;8.30;70.40
65568;DHT22;52211;50.154;8.682;2023-02-01T07:08:48;8.30;70.40
65568;DHT22;52211;50.154;8.682;2023-02-01T07:11:18;8.20;70.30
65568;DHT22;52211;50.154;8.682;2023-02-01T07:13:48;8.30;70.40
65568;DHT22;52211;50.154;8.682;2023-02-01T07:16:19;8.20;70.30
65568;DHT22;52211;50.154;8.682;2023-02-01T07:18:50;8.20;70.30
65568;DHT22;52211;50.154;8.682;2023-02-01T07:21:20;8.30;70.40
65568;DHT22;52211;50.154;8.682;2023-02-01T07:23:50;8.30;70.40
65568;DHT22;52211;50.154;8.682;2023-02-01T07:26:19;8.30;70.30
65568;DHT22;52211;50.154;8.682;2023-02-01T07:28:46;8.20;70.20
65568;DHT22;52211;50.154;8.682;2023-02-01T07:31:16;8.20;70.20
65568;DHT22;52211;50.154;8.682;2023-02-01T07:33:50;8.20;70.20
65568;DHT22;52211;50.154;8.682;2023-02-01T07:36:21;8.30;70.20
65568;DHT22;52211;50.154;8.682;2023-02-01T07:38:53;8.30;70.20
65568;DHT22;52211;50.154;8.682;2023-02-01T07:41:23;8.40;70.20
65568;DHT22;52211;50.154;8.682;2023-02-01T07:43:52;8.40;70.20
65568;DHT22;52211;50.154;8.682;2023-02-01T07:46:20;8.30;70.10
65568;DHT22;52211;50.154;8.682;2023-02-01T07:48:47;8.40;70.20
65568;DHT22;52211;50.154;8.682;2023-02-01T07:51:16;8.40;70.10
65568;DHT22;52211;50.154;8.682;2023-02-01T07:53:46;8.40;70.10
65568;DHT22;52211;50.154;8.682;2023-02-01T07:56:17;8.40;70.10
65568;DHT22;52211;50.154;8.682;2023-02-01T07:58:49;8.50;70.10
65568;DHT22;52211;50.154;8.682;2023-02-01T08:01:24;8.50;70.00
65568;DHT22;52211;50.154;8.682;2023-02-01T08:03:55;8.40;69.80
65568;DHT22;52211;50.154;8.682;2023-02-01T08:06:26;8.50;69.80
65568;DHT22;52211;50.154;8.682;2023-02-01T08:09:00;8.50;69.70
65568;DHT22;52211;50.154;8.682;2023-02-01T08:11:28;8.50;69.70
65568;DHT22;52211;50.154;8.682;2023-02-01T08:13:57;8.50;69.60
65568;DHT22;52211;50.154;8.682;2023-02-01T08:16:25;8.40;69.50
65568;DHT22;52211;50.154;8.682;2023-02-01T08:18:55;8.50;69.50
65568;DHT22;52211;50.154;8.682;2023-02-01T08:21:28;8.50;69.50
65568;DHT22;52211;50.154;8.682;2023-02-01T08:24:07;8.50;69.50
65568;DHT22;52211;50.154;8.682;2023-02-01T08:26:43;8.40;70.00
65568;DHT22;52211;50.154;8.682;2023-02-01T08:29:13;8.50;69.50
65568;DHT22;52211;50.154;8.682;2023-02-01T08:31:44;8.40;69.50
65568;DHT22;52211;50.154;8.682;2023-02-01T08:34:11;8.50;69.50
65568;DHT22;52211;50.154;8.682;2023-02-01T08:36:38;8.50;69.40
65568;DHT22;52211;50.154;8.682;2023-02-01T08:39:11;8.50;69.30
65568;DHT22;52211;50.154;8.682;2023-02-01T08:41:38;8.60;69.40
65568;DHT22;52211;50.154;8.682;2023-02-01T08:44:07;8.60;69.40
65568;DHT22;52211;50.154;8.682;2023-02-01T08:46:37;8.50;69.30
65568;DHT22;52211;50.154;8.682;2023-02-01T08:49:10;8.50;69.30
65568;DHT22;52211;50.154;8.682;2023-02-01T08:51:44;8.60;69.30
65568;DHT22;52211;50.154;8.682;2023-02-01T08:54:13;8.60;69.30
65568;DHT22;52211;50.154;8.682;2023-02-01T08:56:40;8.50;69.20
65568;DHT22;52211;50.154;8.682;2023-02-01T08:59:10;8.60;69.10
65568;DHT22;52211;50.154;8.682;2023-02-01T09:01:40;8.60;69.00
65568;DHT22;52211;50.154;8.682;2023-02-01T09:04:09;8.60;69.00
65568;DHT22;52211;50.154;8.682;2023-02-01T09:06:40;8.60;69.00
65568;DHT22;52211;50.154;8.682;2023-02-01T09:09:12;8.60;69.00
65568;DHT22;52211;50.154;8.682;2023-02-01T09:11:41;8.70;69.00
65568;DHT22;52211;50.154;8.682;2023-02-01T09:14:11;8.70;69.00
65568;DHT22;52211;50.154;8.682;2023-02-01T09:16:40;8.70;68.80
65568;DHT22;52211;50.154;8.682;2023-02-01T09:19:10;8.70;68.90
65568;DHT22;52211;50.154;8.682;2023-02-01T09:21:52;8.70;68.80
65568;DHT22;52211;50.154;8.682;2023-02-01T09:24:21;8.70;68.80
65568;DHT22;52211;50.154;8.682;2023-02-01T09:26:50;8.70;68.80
65568;DHT22;52211;50.154;8.682;2023-02-01T09:29:20;8.80;68.80
65568;DHT22;52211;50.154;8.682;2023-02-01T09:31:51;8.80;68.80
65568;DHT22;52211;50.154;8.682;2023-02-01T09:34:32;8.70;68.50
65568;DHT22;52211;50.154;8.682;2023-02-01T09:37:00;8.80;68.60
65568;DHT22;52211;50.154;8.682;2023-02-01T09:39:28;8.90;68.50
65568;DHT22;52211;50.154;8.682;2023-02-01T09:48:24;8.80;68.00
65568;DHT22;52211;50.154;8.682;2023-02-01T09:51:04;8.80;68.30
65568;DHT22;52211;50.154;8.682;2023-02-01T09:53:36;8.90;68.30
65568;DHT22;52211;50.154;8.682;2023-02-01T09:56:12;8.90;68.30
65568;DHT22;52211;50.154;8.682;2023-02-01T09:59:01;8.90;68.10
65568;DHT22;52211;50.154;8.682;2023-02-01T10:01:39;9.00;68.10
65568;DHT22;52211;50.154;8.682;2023-02-01T10:04:09;9.00;68.20
65568;DHT22;52211;50.154;8.682;2023-02-01T10:12:09;9.10;68.00
65568;DHT22;52211;50.154;8.682;2023-02-01T10:26:22;9.10;67.70
65568;DHT22;52211;50.154;8.682;2023-02-01T10:29:01;9.10;67.30
65568;DHT22;52211;50.154;8.682;2023-02-01T10:31:34;9.20;67.60
65568;DHT22;52211;50.154;8.682;2023-02-01T10:34:25;9.20;67.50
65568;DHT22;52211;50.154;8.682;2023-02-01T10:37:00;9.20;67.10
65568;DHT22;52211;50.154;8.682;2023-02-01T10:39:37;9.20;67.40
65568;DHT22;52211;50.154;8.682;2023-02-01T10:42:08;9.30;67.40
65568;DHT22;52211;50.154;8.682;2023-02-01T10:44:43;9.20;67.20
65568;DHT22;52211;50.154;8.682;2023-02-01T10:47:15;9.30;67.10
65568;DHT22;52211;50.154;8.682;2023-02-01T10:58:25;9.30;66.80
65568;DHT22;52211;50.154;8.682;2023-02-01T11:01:07;9.30;66.90
65568;DHT22;52211;50.154;8.682;2023-02-01T11:03:43;9.30;66.80
65568;DHT22;52211;50.154;8.682;2023-02-01T11:06:32;9.40;66.60
65568;DHT22;52211;50.154;8.682;2023-02-01T11:17:01;9.40;66.30
65568;DHT22;52211;50.154;8.682;2023-02-01T11:19:48;9.50;66.40
65568;DHT22;52211;50.154;8.682;2023-02-01T11:22:26;9.40;66.40
65568;DHT22;52211;50.154;8.682;2023-02-01T11:24:59;9.40;66.50
65568;DHT22;52211;50.154;8.682;2023-02-01T11:27:36;9.50;66.30
65568;DHT22;52211;50.154;8.682;2023-02-01T11:33:16;9.50;66.20
65568;DHT22;52211;50.154;8.682;2023-02-01T11:35:48;9.50;66.20
65568;DHT22;52211;50.154;8.682;2023-02-01T11:38:32;9.50;66.20
65568;DHT22;52211;50.154;8.682;2023-02-01T11:41:13;9.40;65.60
65568;DHT22;52211;50.154;8.682;2023-02-01T11:44:00;9.50;66.00
65568;DHT22;52211;50.154;8.682;2023-02-01T11:46:44;9.50;65.90
65568;DHT22;52211;50.154;8.682;2023-02-01T12:03:37;9.50;66.00
65568;DHT22;52211;50.154;8.682;2023-02-01T12:06:38;9.60;65.80
65568;DHT22;52211;50.154;8.682;2023-02-01T12:09:30;9.60;65.70
65568;DHT22;52211;50.154;8.682;2023-02-01T12:18:02;9.60;65.90
65568;DHT22;52211;50.154;8.682;2023-02-01T12:21:14;9.70;65.90
65568;DHT22;52211;50.154;8.682;2023-02-01T12:27:12;9.70;65.80
65568;DHT22;52211;50.154;8.682;2023-02-01T12:29:48;9.60;65.60
65568;DHT22;52211;50.154;8.682;2023-02-01T12:32:49;9.70;65.90
65568;DHT22;52211;50.154;8.682;2023-02-01T12:35:47;9.80;65.60
65568;DHT22;52211;50.154;8.682;2023-02-01T12:47:40;9.90;65.50
65568;DHT22;52211;50.154;8.682;2023-02-01T12:50:22;9.90;65.20
65568;DHT22;52211;50.154;8.682;2023-02-01T12:56:33;9.90;64.80
65568;DHT22;52211;50.154;8.682;2023-02-01T12:59:18;9.90;65.10
65568;DHT22;52211;50.154;8.682;2023-02-01T13:02:00;9.90;65.00
65568;DHT22;52211;50.154;8.682;2023-02-01T13:08:10;9.90;65.00
65568;DHT22;52211;50.154;8.682;2023-02-01T13:11:16;9.90;64.80
65568;DHT22;52211;50.154;8.682;2023-02-01T13:17:03;9.90;65.00
65568;DHT22;52211;50.154;8.682;2023-02-01T13:20:05;9.90;64.90
65568;DHT22;52211;50.154;8.682;2023-02-01T13:22:43;9.80;64.90
65568;DHT22;52211;50.154;8.682;2023-02-01T13:25:38;9.80;65.00
65568;DHT22;52211;50.154;8.682;2023-02-01T13:34:28;9.90;64.50
65568;DHT22;52211;50.154;8.682;2023-02-01T13:37:43;9.90;64.90
65568;DHT22;52211;50.154;8.682;2023-02-01T13:43:28;9.90;64.90
65568;DHT22;52211;50.154;8.682;2023-02-01T13:46:05;9.90;65.00
65568;DHT22;52211;50.154;8.682;2023-02-01T13:51:08;9.90;64.90
65568;DHT22;52211;50.154;8.682;2023-02-01T13:53:36;9.90;64.90
65568;DHT22;52211;50.154;8.682;2023-02-01T13:56:18;10.00;64.90
65568;DHT22;52211;50.154;8.682;2023-02-01T13:58:51;10.00;65.00
65568;DHT22;52211;50.154;8.682;2023-02-01T14:03:52;10.10;64.80
65568;DHT22;52211;50.154;8.682;2023-02-01T14:21:59;10.20;63.40
65568;DHT22;52211;50.154;8.682;2023-02-01T14:24:54;10.30;63.70
65568;DHT22;52211;50.154;8.682;2023-02-01T14:27:30;10.30;63.70
65568;DHT22;52211;50.154;8.682;2023-02-01T14:30:06;10.40;63.80
65568;DHT22;52211;50.154;8.682;2023-02-01T14:32:43;10.40;64.10
65568;DHT22;52211;50.154;8.682;2023-02-01T14:35:21;10.60;63.90
65568;DHT22;52211;50.154;8.682;2023-02-01T14:38:00;10.70;63.70
65568;DHT22;52211;50.154;8.682;2023-02-01T14:40:34;10.90;63.80
65568;DHT22;52211;50.154;8.682;2023-02-01T14:43:07;11.00;63.70
65568;DHT22;52211;50.154;8.682;2023-02-01T14:45:57;11.20;63.00
65568;DHT22;52211;50.154;8.682;2023-02-01T14:50:54;11.30;62.80
65568;DHT22;52211;50.154;8.682;2023-02-01T14:53:33;11.40;62.50
65568;DHT22;52211;50.154;8.682;2023-02-01T14:56:11;11.40;61.80
65568;DHT22;52211;50.154;8.682;2023-02-01T14:58:56;11.50;61.40
65568;DHT22;52211;50.154;8.682;2023-02-01T15:01:35;11.50;61.70
65568;DHT22;52211;50.154;8.682;2023-02-01T15:04:10;11.50;61.70
65568;DHT22;52211;50.154;8.682;2023-02-01T15:06:47;11.50;61.70
65568;DHT22;52211;50.154;8.682;2023-02-01T15:12:02;11.60;61.70
65568;DHT22;52211;50.154;8.682;2023-02-01T15:14:36;11.50;61.20
65568;DHT22;52211;50.154;8.682;2023-02-01T15:17:24;11.50;61.00
65568;DHT22;52211;50.154;8.682;2023-02-01T15:23:15;11.40;60.70
65568;DHT22;52211;50.154;8.682;2023-02-01T15:25:46;11.30;60.30
65568;DHT22;52211;50.154;8.682;2023-02-01T15:28:15;11.20;60.60
65568;DHT22;52211;50.154;8.682;2023-02-01T15:31:04;11.20;60.90
65568;DHT22;52211;50.154;8.682;2023-02-01T15:33:32;11.20;61.00
65568;DHT22;52211;50.154;8.682;2023-02-01T15:36:16;11.10;60.80
65568;DHT22;52211;50.154;8.682;2023-02-01T15:38:45;11.00;60.70
65568;DHT22;52211;50.154;8.682;2023-02-01T15:41:21;11.00;60.90
65568;DHT22;52211;50.154;8.682;2023-02-01T15:46:38;10.90;60.80
65568;DHT22;52211;50.154;8.682;2023-02-01T15:49:23;10.80;61.50
65568;DHT22;52211;50.154;8.682;2023-02-01T15:52:01;10.80;61.00
65568;DHT22;52211;50.154;8.682;2023-02-01T15:54:41;10.80;61.00
65568;DHT22;52211;50.154;8.682;2023-02-01T15:57:20;10.80;61.10
65568;DHT22;52211;50.154;8.682;2023-02-01T16:00:08;10.70;61.10
65568;DHT22;52211;50.154;8.682;2023-02-01T16:02:58;10.70;61.00
65568;DHT22;52211;50.154;8.682;2023-02-01T16:05:40;10.70;61.00
65568;DHT22;52211;50.154;8.682;2023-02-01T16:08:16;10.60;60.90
65568;DHT22;52211;50.154;8.682;2023-02-01T16:10:54;10.60;61.10
65568;DHT22;52211;50.154;8.682;2023-02-01T16:13:28;10.60;60.80
65568;DHT22;52211;50.154;8.682;2023-02-01T16:15:55;10.60;61.00
65568;DHT22;52211;50.154;8.682;2023-02-01T16:18:22;10.50;61.00
65568;DHT22;52211;50.154;8.682;2023-02-01T16:20:51;10.50;61.10
65568;DHT22;52211;50.154;8.682;2023-02-01T16:23:18;10.50;61.10
65568;DHT22;52211;50.154;8.682;2023-02-01T16:25:49;10.50;61.10
65568;DHT22;52211;50.154;8.682;2023-02-01T16:28:16;10.40;61.10
65568;DHT22;52211;50.154;8.682;2023-02-01T16:30:43;10.40;61.10
65568;DHT22;52211;50.154;8.682;2023-02-01T16:33:16;10.40;61.20
65568;DHT22;52211;50.154;8.682;2023-02-01T16:35:51;10.40;61.30
65568;DHT22;52211;50.154;8.682;2023-02-01T16:38:19;10.40;61.30
65568;DHT22;52211;50.154;8.682;2023-02-01T16:40:55;10.30;61.30
65568;DHT22;52211;50.154;8.682;2023-02-01T16:43:25;10.30;61.40
65568;DHT22;52211;50.154;8.682;2023-02-01T16:45:59;10.30;61.50
65568;DHT22;52211;50.154;8.682;2023-02-01T16:48:36;10.30;61.40
65568;DHT22;52211;50.154;8.682;2023-02-01T16:51:13;10.30;61.50
65568;DHT22;52211;50.154;8.682;2023-02-01T16:53:43;10.20;61.30
65568;DHT22;52211;50.154;8.682;2023-02-01T16:56:28;10.20;61.30
65568;DHT22;52211;50.154;8.682;2023-02-01T16:59:02;10.20;61.90
65568;DHT22;52211;50.154;8.682;2023-02-01T17:01:34;10.20;61.30
65568;DHT22;52211;50.154;8.682;2023-02-01T17:04:09;10.20;61.20
65568;DHT22;52211;50.154;8.682;2023-02-01T17:06:38;10.20;61.30
65568;DHT22;52211;50.154;8.682;2023-02-01T17:09:06;10.10;61.30
65568;DHT22;52211;50.154;8.682;2023-02-01T17:11:33;10.10;61.30
65568;DHT22;52211;50.154;8.682;2023-02-01T17:14:19;10.10;61.30
65568;DHT22;52211;50.154;8.682;2023-02-01T17:16:48;10.10;61.30
65568;DHT22;52211;50.154;8.682;2023-02-01T17:19:19;10.10;61.40
65568;DHT22;52211;50.154;8.682;2023-02-01T17:21:57;10.10;61.40
65568;DHT22;52211;50.154;8.682;2023-02-01T17:24:27;10.00;61.50
65568;DHT22;52211;50.154;8.682;2023-02-01T17:27:13;10.00;61.50
65568;DHT22;52211;50.154;8.682;2023-02-01T17:29:47;10.00;61.60
65568;DHT22;52211;50.154;8.682;2023-02-01T17:32:19;10.00;61.60
65568;DHT22;52211;50.154;8.682;2023-02-01T17:34:49;10.00;61.70
65568;DHT22;52211;50.154;8.682;2023-02-01T17:37:25;9.90;61.70
65568;DHT22;52211;50.154;8.682;2023-02-01T17:39:53;9.90;61.80
65568;DHT22;52211;50.154;8.682;2023-02-01T17:42:20;9.90;61.80
65568;DHT22;52211;50.154;8.682;2023-02-01T17:44:53;9.90;61.90
65568;DHT22;52211;50.154;8.682;2023-02-01T17:47:22;9.80;62.50
65568;DHT22;52211;50.154;8.682;2023-02-01T17:49:52;9.80;61.90
65568;DHT22;52211;50.154;8.682;2023-02-01T17:52:23;9.80;62.00
65568;DHT22;52211;50.154;8.682;2023-02-01T17:54:56;9.70;62.70
65568;DHT22;52211;50.154;8.682;2023-02-01T17:57:28;9.70;62.20
65568;DHT22;52211;50.154;8.682;2023-02-01T17:59:55;9.70;62.30
65568;DHT22;52211;50.154;8.682;2023-02-01T18:02:24;9.70;62.40
65568;DHT22;52211;50.154;8.682;2023-02-01T18:04:53;9.70;62.40
65568;DHT22;52211;50.154;8.682;2023-02-01T18:07:23;9.60;62.50
65568;DHT22;52211;50.154;8.682;2023-02-01T18:09:52;9.60;62.60
65568;DHT22;52211;50.154;8.682;2023-02-01T18:12:25;9.60;62.70
65568;DHT22;52211;50.154;8.682;2023-02-01T18:14:59;9.50;62.70
65568;DHT22;52211;50.154;8.682;2023-02-01T18:17:28;9.50;62.80
65568;DHT22;52211;50.154;8.682;2023-02-01T18:19:57;9.50;62.90
65568;DHT22;52211;50.154;8.682;2023-02-01T18:22:27;9.40;63.00
65568;DHT22;52211;50.154;8.682;2023-02-01T18:24:54;9.40;63.20
65568;DHT22;52211;50.154;8.682;2023-02-01T18:27:20;9.30;63.20
65568;DHT22;52211;50.154;8.682;2023-02-01T18:29:48;9.30;63.40
65568;DHT22;52211;50.154;8.682;2023-02-01T18:32:17;9.20;63.40
65568;DHT22;52211;50.154;8.682;2023-02-01T18:34:46;9.20;64.10
65568;DHT22;52211;50.154;8.682;2023-02-01T18:37:13;9.20;63.50
65568;DHT22;52211;50.154;8.682;2023-02-01T18:39:44;9.10;63.60
65568;DHT22;52211;50.154;8.682;2023-02-01T18:42:16;9.10;63.80
65568;DHT22;52211;50.154;8.682;2023-02-01T18:44:43;9.00;63.80
65568;DHT22;52211;50.154;8.682;2023-02-01T18:47:14;9.00;63.80
65568;DHT22;52211;50.154;8.682;2023-02-01T18:49:43;9.00;63.90
65568;DHT22;52211;50.154;8.682;2023-02-01T18:52:13;8.90;64.00
65568;DHT22;52211;50.154;8.682;2023-02-01T18:54:40;8.90;64.00
65568;DHT22;52211;50.154;8.682;2023-02-01T18:57:24;8.90;64.10
65568;DHT22;52211;50.154;8.682;2023-02-01T18:59:58;8.90;64.20
65568;DHT22;52211;50.154;8.682;2023-02-01T19:02:27;8.90;64.30
65568;DHT22;52211;50.154;8.682;2023-02-01T19:04:56;8.90;64.30
65568;DHT22;52211;50.154;8.682;2023-02-01T19:07:25;8.80;64.30
65568;DHT22;52211;50.154;8.682;2023-02-01T19:09:57;8.80;64.50
65568;DHT22;52211;50.154;8.682;2023-02-01T19:12:29;8.90;64.40
65568;DHT22;52211;50.154;8.682;2023-02-01T19:14:56;8.80;64.50